sensor_id;sensor_type;location;lat;lon;timestamp;pressure;altitude;pressure_sealevel;temperature;humidity
34925;BME280;21130;51.728;8.748;2023-02-11T00:00:19;102109.44;;;5.13;100.00
34925;BME280;21130;51.728;8.748;2023-02-11T00:02:45;102096.53;;;5.13;100.00
34925;BME280;21130;51.728;8.748;2023-02-11T00:05:11;102089.81;;;5.16;100.00
34925;BME280;21130;51.728;8.748;2023-02-11T00:07:38;102092.22;;;5.19;100.00
34925;BME280;21130;51.728;8.748;2023-02-11T00:10:05;102090.16;;;5.13;100.00
34925;BME280;21130;51.728;8.748;2023-02-11T00:12:32;102097.56;;;5.04;100.00
34925;BME280;21130;51.728;8.748;2023-02-11T00:14:58;102097.19;;;4.99;100.00
34925;BME280;21130;51.728;8.748;2023-02-11T00:17:26;102099.09;;;4.98;100.00
34925;BME280;21130;51.728;8.748;2023-02-11T00:19:52;102100.81;;;5.00;100.00
34925;BME280;21130;51.728;8.748;2023-02-11T00:22:19;102095.63;;;4.96;100.00
34925;BME280;21130;51.728;8.748;2023-02-11T00:24:46;102094.78;;;4.96;100.00
34925;BME280;21130;51.728;8.748;2023-02-11T00:27:12;102091.00;;;4.97;100.00
34925;BME280;21130;51.728;8.748;2023-02-11T00:29:39;102093.56;;;4.98;100.00
34925;BME280;21130;51.728;8.748;2023-02-11T00:32:06;102089.97;;;4.98;100.00
34925;BME280;21130;51.728;8.748;2023-02-11T00:34:35;102089.47;;;5.03;100.00
34925;BME280;21130;51.728;8.748;2023-02-11T00:37:02;102091.53;;;5.01;100.00
34925;BME280;21130;51.728;8.748;2023-02-11T00:39:29;102080.34;;;5.02;100.00
34925;BME280;21130;51.728;8.748;2023-02-11T00:41:55;102092.91;;;5.05;100.00
34925;BME280;21130;51.728;8.748;2023-02-11T00:44:22;102093.78;;;5.05;100.00
34925;BME280;21130;51.728;8.748;2023-02-11T00:46:48;102089.13;;;5.06;100.00
34925;BME280;21130;51.728;8.748;2023-02-11T00:49:15;102092.72;;;5.06;100.00
34925;BME280;21130;51.728;8.748;2023-02-11T00:51:43;102090.31;;;5.03;100.00
34925;BME280;21130;51.728;8.748;2023-02-11T00:54:09;102092.22;;;5.03;100.00
34925;BME280;21130;51.728;8.748;2023-02-11T00:56:35;102094.97;;;5.03;100.00
34925;BME280;21130;51.728;8.748;2023-02-11T00:59:02;102092.03;;;4.96;100.00
34925;BME280;21130;51.728;8.748;2023-02-11T01:01:28;102102.69;;;4.91;100.00
34925;BME280;21130;51.728;8.748;2023-02-11T01:03:55;102108.38;;;4.89;100.00
34925;BME280;21130;51.728;8.748;2023-02-11T01:06:21;102101.13;;;4.80;100.00
34925;BME280;21130;51.728;8.748;2023-02-11T01:08:49;102099.72;;;4.76;100.00
34925;BME280;21130;51.728;8.748;2023-02-11T01:11:16;102100.56;;;4.68;100.00
34925;BME280;21130;51.728;8.748;2023-02-11T01:13:44;102097.44;;;4.63;100.00
34925;BME280;21130;51.728;8.748;2023-02-11T01:16:11;102093.31;;;4.59;100.00
34925;BME280;21130;51.728;8.748;2023-02-11T01:18:38;102087.97;;;4.58;100.00
34925;BME280;21130;51.728;8.748;2023-02-11T01:21:06;102091.41;;;4.51;100.00
34925;BME280;21130;51.728;8.748;2023-02-11T01:23:32;102079.53;;;4.51;100.00
34925;BME280;21130;51.728;8.748;2023-02-11T01:26:00;102084.16;;;4.50;100.00
34925;BME280;21130;51.728;8.748;2023-02-11T01:28:28;102080.56;;;4.50;100.00
34925;BME280;21130;51.728;8.748;2023-02-11T01:30:54;102090.53;;;4.51;100.00
34925;BME280;21130;51.728;8.748;2023-02-11T01:33:21;102106.72;;;4.54;100.00
34925;BME280;21130;51.728;8.748;2023-02-11T01:35:49;102110.31;;;4.54;100.00
34925;BME280;21130;51.728;8.748;2023-02-11T01:38:18;102105.19;;;4.60;100.00
34925;BME280;21130;51.728;8.748;2023-02-11T01:40:46;102099.69;;;4.60;100.00
34925;BME280;21130;51.728;8.748;2023-02-11T01:43:14;102099.34;;;4.63;100.00
34925;BME280;21130;51.728;8.748;2023-02-11T01:45:53;102100.53;;;4.60;100.00
34925;BME280;21130;51.728;8.748;2023-02-11T01:48:27;102086.63;;;4.62;100.00
34925;BME280;21130;51.728;8.748;2023-02-11T01:50:58;102076.47;;;4.54;100.00
34925;BME280;21130;51.728;8.748;2023-02-11T01:53:27;102073.03;;;4.52;100.00
34925;BME280;21130;51.728;8.748;2023-02-11T01:56:13;102077.97;;;4.48;100.00
34925;BME280;21130;51.728;8.748;2023-02-11T01:59:02;102067.09;;;4.39;100.00
34925;BME280;21130;51.728;8.748;2023-02-11T02:01:31;102062.81;;;4.36;100.00
34925;BME280;21130;51.728;8.748;2023-02-11T02:04:00;102056.09;;;4.30;100.00
34925;BME280;21130;51.728;8.748;2023-02-11T02:06:32;102051.09;;;4.26;100.00
34925;BME280;21130;51.728;8.748;2023-02-11T02:09:03;102059.50;;;4.24;100.00
34925;BME280;21130;51.728;8.748;2023-02-11T02:11:32;102056.22;;;4.21;100.00
34925;BME280;21130;51.728;8.748;2023-02-11T02:14:00;102054.84;;;4.17;100.00
34925;BME280;21130;51.728;8.748;2023-02-11T02:16:31;102046.59;;;4.17;100.00
34925;BME280;21130;51.728;8.748;2023-02-11T02:19:12;102042.97;;;4.16;100.00
34925;BME280;21130;51.728;8.748;2023-02-11T02:22:04;102051.72;;;4.11;100.00
34925;BME280;21130;51.728;8.748;2023-02-11T02:24:55;102053.59;;;4.11;100.00
34925;BME280;21130;51.728;8.748;2023-02-11T02:27:35;102058.56;;;4.07;100.00
34925;BME280;21130;51.728;8.748;2023-02-11T02:33:32;102057.00;;;4.05;100.00
34925;BME280;21130;51.728;8.748;2023-02-11T02:36:06;102049.94;;;4.02;100.00
34925;BME280;21130;51.728;8.748;2023-02-11T02:38:38;102057.00;;;4.05;100.00
34925;BME280;21130;51.728;8.748;2023-02-11T02:41:12;102048.91;;;4.03;100.00
34925;BME280;21130;51.728;8.748;2023-02-11T02:43:44;102041.56;;;4.04;100.00
34925;BME280;21130;51.728;8.748;2023-02-11T02:46:14;102040.84;;;4.02;100.00
34925;BME280;21130;51.728;8.748;2023-02-11T02:48:44;102034.50;;;4.01;100.00
34925;BME280;21130;51.728;8.748;2023-02-11T02:58:13;102020.06;;;3.99;100.00
34925;BME280;21130;51.728;8.748;2023-02-11T03:00:52;102033.97;;;3.98;100.00
34925;BME280;21130;51.728;8.748;2023-02-11T03:03:28;102038.03;;;3.94;100.00
34925;BME280;21130;51.728;8.748;2023-02-11T03:06:02;102036.84;;;3.96;100.00
34925;BME280;21130;51.728;8.748;2023-02-11T03:08:35;102040.63;;;3.95;100.00
34925;BME280;21130;51.728;8.748;2023-02-11T03:11:04;102040.97;;;3.92;100.00
34925;BME280;21130;51.728;8.748;2023-02-11T03:13:33;102042.34;;;3.96;100.00
34925;BME280;21130;51.728;8.748;2023-02-11T03:16:09;102045.28;;;3.95;100.00
34925;BME280;21130;51.728;8.748;2023-02-11T03:18:40;102037.03;;;3.95;100.00
34925;BME280;21130;51.728;8.748;2023-02-11T03:21:10;102026.06;;;3.95;100.00
34925;BME280;21130;51.728;8.748;2023-02-11T03:23:40;102018.81;;;3.94;100.00
34925;BME280;21130;51.728;8.748;2023-02-11T03:26:11;102016.78;;;3.96;100.00
34925;BME280;21130;51.728;8.748;2023-02-11T03:28:43;102008.53;;;3.96;100.00
34925;BME280;21130;51.728;8.748;2023-02-11T03:31:17;102018.34;;;3.98;100.00
34925;BME280;21130;51.728;8.748;2023-02-11T03:33:53;102013.88;;;3.97;100.00
34925;BME280;21130;51.728;8.748;2023-02-11T03:36:27;102020.06;;;3.99;100.00
34925;BME280;21130;51.728;8.748;2023-02-11T03:38:58;102013.53;;;4.00;100.00
34925;BME280;21130;51.728;8.748;2023-02-11T03:41:25;102026.41;;;4.00;100.00
34925;BME280;21130;51.728;8.748;2023-02-11T03:43:53;102020.94;;;4.00;100.00
34925;BME280;21130;51.728;8.748;2023-02-11T03:46:23;102015.94;;;4.03;100.00
34925;BME280;21130;51.728;8.748;2023-02-11T03:48:54;102010.47;;;4.03;100.00
34925;BME280;21130;51.728;8.748;2023-02-11T03:51:23;102008.75;;;4.02;100.00
34925;BME280;21130;51.728;8.748;2023-02-11T03:53:54;101999.47;;;4.03;100.00
34925;BME280;21130;51.728;8.748;2023-02-11T03:56:29;101997.59;;;4.04;100.00
34925;BME280;21130;51.728;8.748;2023-02-11T03:58:58;101989.38;;;4.04;100.00
34925;BME280;21130;51.728;8.748;2023-02-11T04:01:24;101991.94;;;4.05;100.00
34925;BME280;21130;51.728;8.748;2023-02-11T04:03:51;101991.59;;;4.08;100.00
34925;BME280;21130;51.728;8.748;2023-02-11T04:06:17;101998.13;;;4.07;100.00
34925;BME280;21130;51.728;8.748;2023-02-11T04:08:45;102006.22;;;4.09;100.00
34925;BME280;21130;51.728;8.748;2023-02-11T04:11:11;101998.81;;;4.09;100.00
34925;BME280;21130;51.728;8.748;2023-02-11T04:13:38;102014.44;;;4.09;100.00
34925;BME280;21130;51.728;8.748;2023-02-11T04:16:04;102005.84;;;4.04;100.00
34925;BME280;21130;51.728;8.748;2023-02-11T04:18:31;102004.31;;;4.09;100.00
34925;BME280;21130;51.728;8.748;2023-02-11T04:20:57;102006.38;;;4.07;100.00
34925;BME280;21130;51.728;8.748;2023-02-11T04:23:24;102010.16;;;4.06;100.00
34925;BME280;21130;51.728;8.748;2023-02-11T04:25:52;102007.06;;;4.09;100.00
34925;BME280;21130;51.728;8.748;2023-02-11T04:28:18;102012.22;;;4.13;100.00
34925;BME280;21130;51.728;8.748;2023-02-11T04:30:45;102005.88;;;4.12;100.00
34925;BME280;21130;51.728;8.748;2023-02-11T04:33:11;102007.44;;;4.15;100.00
34925;BME280;21130;51.728;8.748;2023-02-11T04:35:38;102013.44;;;4.18;100.00
34925;BME280;21130;51.728;8.748;2023-02-11T04:38:04;102008.78;;;4.19;100.00
34925;BME280;21130;51.728;8.748;2023-02-11T04:40:30;101999.88;;;4.17;100.00
34925;BME280;21130;51.728;8.748;2023-02-11T04:42:58;102001.59;;;4.18;100.00
34925;BME280;21130;51.728;8.748;2023-02-11T04:45:25;102006.03;;;4.19;100.00
34925;BME280;21130;51.728;8.748;2023-02-11T04:47:51;101994.88;;;4.12;100.00
34925;BME280;21130;51.728;8.748;2023-02-11T04:50:17;101985.78;;;4.11;100.00
34925;BME280;21130;51.728;8.748;2023-02-11T04:52:44;101977.69;;;4.10;100.00
34925;BME280;21130;51.728;8.748;2023-02-11T04:55:11;101985.09;;;4.09;100.00
34925;BME280;21130;51.728;8.748;2023-02-11T04:57:38;101978.56;;;4.10;100.00
34925;BME280;21130;51.728;8.748;2023-02-11T05:00:08;101996.06;;;4.09;100.00
34925;BME280;21130;51.728;8.748;2023-02-11T05:02:35;101995.03;;;4.10;100.00
34925;BME280;21130;51.728;8.748;2023-02-11T05:05:01;101985.25;;;4.16;100.00
34925;BME280;21130;51.728;8.748;2023-02-11T05:07:28;101990.44;;;4.19;100.00
34925;BME280;21130;51.728;8.748;2023-02-11T05:09:54;101989.25;;;4.22;100.00
34925;BME280;21130;51.728;8.748;2023-02-11T05:12:20;101989.91;;;4.24;100.00
34925;BME280;21130;51.728;8.748;2023-02-11T05:14:47;101994.56;;;4.23;100.00
34925;BME280;21130;51.728;8.748;2023-02-11T05:17:15;101989.06;;;4.23;100.00
34925;BME280;21130;51.728;8.748;2023-02-11T05:19:41;101992.34;;;4.27;100.00
34925;BME280;21130;51.728;8.748;2023-02-11T05:22:08;101999.91;;;4.25;100.00
34925;BME280;21130;51.728;8.748;2023-02-11T05:24:34;101999.91;;;4.25;100.00
34925;BME280;21130;51.728;8.748;2023-02-11T05:27:01;102006.41;;;4.24;100.00
34925;BME280;21130;51.728;8.748;2023-02-11T05:29:27;101991.66;;;4.25;100.00
34925;BME280;21130;51.728;8.748;2023-02-11T05:31:54;101989.91;;;4.24;100.00
34925;BME280;21130;51.728;8.748;2023-02-11T05:34:21;101994.41;;;4.25;100.00
34925;BME280;21130;51.728;8.748;2023-02-11T05:36:48;101998.34;;;4.22;100.00
34925;BME280;21130;51.728;8.748;2023-02-11T05:39:15;102002.81;;;4.23;100.00
34925;BME280;21130;51.728;8.748;2023-02-11T05:41:41;102001.09;;;4.22;100.00
34925;BME280;21130;51.728;8.748;2023-02-11T05:44:07;101999.22;;;4.23;100.00
34925;BME280;21130;51.728;8.748;2023-02-11T05:46:34;101995.94;;;4.19;100.00
34925;BME280;21130;51.728;8.748;2023-02-11T05:49:01;101998.34;;;4.22;100.00
34925;BME280;21130;51.728;8.748;2023-02-11T05:51:28;101989.06;;;4.23;100.00
34925;BME280;21130;51.728;8.748;2023-02-11T05:53:55;101994.06;;;4.20;100.00
34925;BME280;21130;51.728;8.748;2023-02-11T05:56:21;101986.81;;;4.19;100.00
34925;BME280;21130;51.728;8.748;2023-02-11T05:58:48;101991.47;;;4.18;100.00
34925;BME280;21130;51.728;8.748;2023-02-11T06:01:14;101990.44;;;4.19;100.00
34925;BME280;21130;51.728;8.748;2023-02-11T06:03:41;101993.34;;;4.18;100.00
34925;BME280;21130;51.728;8.748;2023-02-11T06:06:08;101988.00;;;4.16;100.00
34925;BME280;21130;51.728;8.748;2023-02-11T06:08:37;101990.44;;;4.19;100.00
34925;BME280;21130;51.728;8.748;2023-02-11T06:11:03;101984.25;;;4.17;100.00
34925;BME280;21130;51.728;8.748;2023-02-11T06:13:29;101980.47;;;4.18;100.00
34925;BME280;21130;51.728;8.748;2023-02-11T06:15:56;101997.66;;;4.20;100.00
34925;BME280;21130;51.728;8.748;2023-02-11T06:18:23;102007.09;;;4.18;100.00
34925;BME280;21130;51.728;8.748;2023-02-11T06:20:50;102001.59;;;4.18;100.00
34925;BME280;21130;51.728;8.748;2023-02-11T06:23:17;102002.28;;;4.20;100.00
34925;BME280;21130;51.728;8.748;2023-02-11T06:25:44;101999.88;;;4.17;100.00
34925;BME280;21130;51.728;8.748;2023-02-11T06:28:11;102010.88;;;4.17;100.00
34925;BME280;21130;51.728;8.748;2023-02-11T06:30:37;102003.31;;;4.19;100.00
34925;BME280;21130;51.728;8.748;2023-02-11T06:33:04;102008.78;;;4.19;100.00
34925;BME280;21130;51.728;8.748;2023-02-11T06:35:30;102013.94;;;4.14;100.00
34925;BME280;21130;51.728;8.748;2023-02-11T06:37:57;102010.88;;;4.17;100.00
34925;BME280;21130;51.728;8.748;2023-02-11T06:40:24;102020.31;;;4.14;100.00
34925;BME280;21130;51.728;8.748;2023-02-11T06:42:52;102018.41;;;4.15;100.00
34925;BME280;21130;51.728;8.748;2023-02-11T06:45:18;102022.19;;;4.14;100.00
34925;BME280;21130;51.728;8.748;2023-02-11T06:47:45;102022.19;;;4.14;100.00
34925;BME280;21130;51.728;8.748;2023-02-11T06:50:12;102027.00;;;4.11;100.00
34925;BME280;21130;51.728;8.748;2023-02-11T06:52:40;102016.88;;;4.12;100.00
34925;BME280;21130;51.728;8.748;2023-02-11T06:55:06;102024.25;;;4.11;100.00
34925;BME280;21130;51.728;8.748;2023-02-11T06:57:33;102026.81;;;4.13;100.00
34925;BME280;21130;51.728;8.748;2023-02-11T07:00:00;102022.50;;;4.10;100.00
34925;BME280;21130;51.728;8.748;2023-02-11T07:02:45;102031.78;;;4.09;100.00
34925;BME280;21130;51.728;8.748;2023-02-11T07:05:12;102031.78;;;4.09;100.00
34925;BME280;21130;51.728;8.748;2023-02-11T07:07:38;102033.00;;;4.07;100.00
34925;BME280;21130;51.728;8.748;2023-02-11T07:10:05;102037.09;;;4.11;100.00
34925;BME280;21130;51.728;8.748;2023-02-11T07:12:32;102041.03;;;4.08;100.00
34925;BME280;21130;51.728;8.748;2023-02-11T07:14:59;102047.56;;;4.07;100.00
34925;BME280;21130;51.728;8.748;2023-02-11T07:17:27;102044.13;;;4.05;100.00
34925;BME280;21130;51.728;8.748;2023-02-11T07:19:53;102052.03;;;4.08;100.00
34925;BME280;21130;51.728;8.748;2023-02-11T07:22:20;102048.97;;;4.11;100.00
34925;BME280;21130;51.728;8.748;2023-02-11T07:24:46;102056.34;;;4.11;100.00
34925;BME280;21130;51.728;8.748;2023-02-11T07:27:12;102054.47;;;4.11;100.00
34925;BME280;21130;51.728;8.748;2023-02-11T07:29:41;102041.75;;;4.10;100.00
34925;BME280;21130;51.728;8.748;2023-02-11T07:32:07;102039.19;;;4.09;100.00
34925;BME280;21130;51.728;8.748;2023-02-11T07:34:35;102048.09;;;4.11;100.00
34925;BME280;21130;51.728;8.748;2023-02-11T07:37:02;102051.72;;;4.11;100.00
34925;BME280;21130;51.728;8.748;2023-02-11T07:39:28;102047.09;;;4.12;100.00
34925;BME280;21130;51.728;8.748;2023-02-11T07:41:55;102047.94;;;4.13;100.00
34925;BME280;21130;51.728;8.748;2023-02-11T07:44:21;102039.00;;;4.10;100.00
34925;BME280;21130;51.728;8.748;2023-02-11T07:46:48;102036.94;;;4.13;100.00
34925;BME280;21130;51.728;8.748;2023-02-11T07:49:15;102045.03;;;4.14;100.00
34925;BME280;21130;51.728;8.748;2023-02-11T07:51:42;102059.63;;;4.15;100.00
34925;BME280;21130;51.728;8.748;2023-02-11T07:54:10;102059.16;;;4.19;100.00
34925;BME280;21130;51.728;8.748;2023-02-11T07:56:36;102060.00;;;4.20;100.00
34925;BME280;21130;51.728;8.748;2023-02-11T07:59:03;102055.50;;;4.19;100.00
34925;BME280;21130;51.728;8.748;2023-02-11T08:01:30;102059.31;;;4.18;100.00
34925;BME280;21130;51.728;8.748;2023-02-11T08:03:58;102064.78;;;4.18;100.00
34925;BME280;21130;51.728;8.748;2023-02-11T08:06:27;102061.91;;;4.19;100.00
34925;BME280;21130;51.728;8.748;2023-02-11T08:08:57;102067.91;;;4.23;100.00
34925;BME280;21130;51.728;8.748;2023-02-11T08:11:25;102055.88;;;4.24;100.00
34925;BME280;21130;51.728;8.748;2023-02-11T08:13:54;102045.78;;;4.24;100.00
34925;BME280;21130;51.728;8.748;2023-02-11T08:16:23;102062.06;;;4.26;100.00
34925;BME280;21130;51.728;8.748;2023-02-11T08:18:51;102060.03;;;4.28;100.00
34925;BME280;21130;51.728;8.748;2023-02-11T08:21:19;102051.78;;;4.28;100.00
34925;BME280;21130;51.728;8.748;2023-02-11T08:23:46;102059.03;;;4.29;100.00
34925;BME280;21130;51.728;8.748;2023-02-11T08:26:16;102067.94;;;4.31;100.00
34925;BME280;21130;51.728;8.748;2023-02-11T08:31:20;102063.84;;;4.35;100.00
34925;BME280;21130;51.728;8.748;2023-02-11T08:33:47;102072.09;;;4.35;100.00
34925;BME280;21130;51.728;8.748;2023-02-11T08:36:15;102077.09;;;4.40;100.00
34925;BME280;21130;51.728;8.748;2023-02-11T08:38:42;102081.56;;;4.41;100.00
34925;BME280;21130;51.728;8.748;2023-02-11T08:41:09;102082.41;;;4.41;100.00
34925;BME280;21130;51.728;8.748;2023-02-11T08:43:44;102079.66;;;4.41;100.00
34925;BME280;21130;51.728;8.748;2023-02-11T08:46:12;102087.59;;;4.44;100.00
34925;BME280;21130;51.728;8.748;2023-02-11T08:48:39;102091.34;;;4.43;100.00
34925;BME280;21130;51.728;8.748;2023-02-11T08:51:06;102091.34;;;4.43;100.00
34925;BME280;21130;51.728;8.748;2023-02-11T08:53:33;102085.50;;;4.46;100.00
34925;BME280;21130;51.728;8.748;2023-02-11T08:56:00;102090.72;;;4.49;100.00
34925;BME280;21130;51.728;8.748;2023-02-11T08:58:26;102098.06;;;4.49;100.00
34925;BME280;21130;51.728;8.748;2023-02-11T09:00:54;102088.66;;;4.51;100.00
34925;BME280;21130;51.728;8.748;2023-02-11T09:03:20;102091.06;;;4.54;100.00
34925;BME280;21130;51.728;8.748;2023-02-11T09:05:48;102100.03;;;4.57;100.00
34925;BME280;21130;51.728;8.748;2023-02-11T09:08:17;102100.88;;;4.57;100.00
34925;BME280;21130;51.728;8.748;2023-02-11T09:10:44;102101.56;;;4.59;100.00
34925;BME280;21130;51.728;8.748;2023-02-11T09:13:11;102101.72;;;4.58;100.00
34925;BME280;21130;51.728;8.748;2023-02-11T09:15:37;102101.38;;;4.61;100.00
34925;BME280;21130;51.728;8.748;2023-02-11T09:18:05;102102.25;;;4.61;100.00
34925;BME280;21130;51.728;8.748;2023-02-11T09:20:32;102105.69;;;4.63;100.00
34925;BME280;21130;51.728;8.748;2023-02-11T09:22:58;102109.28;;;4.64;100.00
34925;BME280;21130;51.728;8.748;2023-02-11T09:25:25;102110.84;;;4.66;100.00
34925;BME280;21130;51.728;8.748;2023-02-11T09:27:52;102111.41;;;4.70;100.00
34925;BME280;21130;51.728;8.748;2023-02-11T09:30:18;102115.69;;;4.72;100.00
34925;BME280;21130;51.728;8.748;2023-02-11T09:32:45;102112.75;;;4.74;100.00
34925;BME280;21130;51.728;8.748;2023-02-11T09:35:12;102110.91;;;4.74;100.00
34925;BME280;21130;51.728;8.748;2023-02-11T09:37:39;102111.75;;;4.75;100.00
34925;BME280;21130;51.728;8.748;2023-02-11T09:40:06;102117.78;;;4.79;100.00
34925;BME280;21130;51.728;8.748;2023-02-11T09:42:39;102114.88;;;4.80;100.00
34925;BME280;21130;51.728;8.748;2023-02-11T09:45:12;102104.22;;;4.77;100.00
34925;BME280;21130;51.728;8.748;2023-02-11T09:47:45;102115.56;;;4.82;100.00
34925;BME280;21130;51.728;8.748;2023-02-11T09:50:17;102140.69;;;4.87;100.00
34925;BME280;21130;51.728;8.748;2023-02-11T09:52:51;102128.47;;;4.90;100.00
34925;BME280;21130;51.728;8.748;2023-02-11T09:55:22;102147.75;;;4.90;100.00
34925;BME280;21130;51.728;8.748;2023-02-11T09:57:50;102134.50;;;4.93;100.00
34925;BME280;21130;51.728;8.748;2023-02-11T10:00:20;102140.00;;;4.93;100.00
34925;BME280;21130;51.728;8.748;2023-02-11T10:02:59;102138.81;;;4.96;100.00
34925;BME280;21130;51.728;8.748;2023-02-11T10:05:40;102140.00;;;4.93;100.00
34925;BME280;21130;51.728;8.748;2023-02-11T10:08:15;102137.78;;;4.97;100.00
34925;BME280;21130;51.728;8.748;2023-02-11T10:10:49;102143.31;;;5.05;100.00
34925;BME280;21130;51.728;8.748;2023-02-11T10:13:31;102137.97;;;5.04;100.00
34925;BME280;21130;51.728;8.748;2023-02-11T10:16:08;102144.50;;;5.03;100.00
34925;BME280;21130;51.728;8.748;2023-02-11T10:18:45;102139.00;;;5.03;100.00
34925;BME280;21130;51.728;8.748;2023-02-11T10:21:24;102142.09;;;5.08;100.00
34925;BME280;21130;51.728;8.748;2023-02-11T10:23:59;102136.59;;;5.08;100.00
34925;BME280;21130;51.728;8.748;2023-02-11T10:26:29;102139.34;;;5.08;100.00
34925;BME280;21130;51.728;8.748;2023-02-11T10:28:59;102144.88;;;5.16;100.00
34925;BME280;21130;51.728;8.748;2023-02-11T10:31:33;102155.38;;;5.20;100.00
34925;BME280;21130;51.728;8.748;2023-02-11T10:34:03;102155.38;;;5.20;100.00
34925;BME280;21130;51.728;8.748;2023-02-11T10:36:34;102165.53;;;5.28;100.00
34925;BME280;21130;51.728;8.748;2023-02-11T10:39:09;102167.28;;;5.29;100.00
34925;BME280;21130;51.728;8.748;2023-02-11T10:41:39;102167.59;;;5.26;100.00
34925;BME280;21130;51.728;8.748;2023-02-11T10:44:07;102168.13;;;5.30;100.00
34925;BME280;21130;51.728;8.748;2023-02-11T10:46:35;102167.28;;;5.29;100.00
34925;BME280;21130;51.728;8.748;2023-02-11T10:49:04;102164.34;;;5.31;100.00
34925;BME280;21130;51.728;8.748;2023-02-11T10:51:33;102167.78;;;5.33;100.00
34925;BME280;21130;51.728;8.748;2023-02-11T10:54:10;102174.50;;;5.30;100.00
34925;BME280;21130;51.728;8.748;2023-02-11T10:56:40;102176.19;;;5.31;100.00
34925;BME280;21130;51.728;8.748;2023-02-11T10:59:14;102162.44;;;5.31;100.00
34925;BME280;21130;51.728;8.748;2023-02-11T11:01:44;102162.13;;;5.34;100.00
34925;BME280;21130;51.728;8.748;2023-02-11T11:04:32;102167.63;;;5.34;100.00
34925;BME280;21130;51.728;8.748;2023-02-11T11:07:11;102164.88;;;5.34;100.00
34925;BME280;21130;51.728;8.748;2023-02-11T11:09:44;102169.69;;;5.40;100.00
34925;BME280;21130;51.728;8.748;2023-02-11T11:12:24;102160.72;;;5.38;100.00
34925;BME280;21130;51.728;8.748;2023-02-11T11:14:53;102160.91;;;5.37;100.00
34925;BME280;21130;51.728;8.748;2023-02-11T11:17:20;102159.38;;;5.34;100.00
34925;BME280;21130;51.728;8.748;2023-02-11T11:19:47;102162.44;;;5.31;100.00
34925;BME280;21130;51.728;8.748;2023-02-11T11:22:20;102166.94;;;5.32;100.00
34925;BME280;21130;51.728;8.748;2023-02-11T11:24:47;102167.63;;;5.34;100.00
34925;BME280;21130;51.728;8.748;2023-02-11T11:27:20;102177.59;;;5.35;100.00
34925;BME280;21130;51.728;8.748;2023-02-11T11:29:51;102177.59;;;5.35;100.00
34925;BME280;21130;51.728;8.748;2023-02-11T11:32:19;102181.06;;;5.37;100.00
34925;BME280;21130;51.728;8.748;2023-02-11T11:34:49;102169.69;;;5.40;100.00
34925;BME280;21130;51.728;8.748;2023-02-11T11:37:23;102176.91;;;5.41;100.00
34925;BME280;21130;51.728;8.748;2023-02-11T11:39:55;102178.44;;;5.36;100.00
34925;BME280;21130;51.728;8.748;2023-02-11T11:42:27;102173.28;;;5.33;100.00
34925;BME280;21130;51.728;8.748;2023-02-11T11:44:57;102174.50;;;5.38;100.00
34925;BME280;21130;51.728;8.748;2023-02-11T11:47:28;102166.94;;;5.32;100.00
34925;BME280;21130;51.728;8.748;2023-02-11T11:50:18;102161.94;;;5.36;100.00
34925;BME280;21130;51.728;8.748;2023-02-11T11:52:53;102168.47;;;5.35;100.00
34925;BME280;21130;51.728;8.748;2023-02-11T11:55:21;102166.59;;;5.35;100.00
34925;BME280;21130;51.728;8.748;2023-02-11T11:57:50;102170.03;;;5.37;100.00
34925;BME280;21130;51.728;8.748;2023-02-11T12:00:19;102169.50;;;5.34;100.00
34925;BME280;21130;51.728;8.748;2023-02-11T12:03:12;102166.25;;;5.38;100.00
34925;BME280;21130;51.728;8.748;2023-02-11T12:05:46;102156.97;;;5.39;100.00
34925;BME280;21130;51.728;8.748;2023-02-11T12:08:22;102158.53;;;5.42;100.00
34925;BME280;21130;51.728;8.748;2023-02-11T12:10:59;102168.13;;;5.46;100.00
34925;BME280;21130;51.728;8.748;2023-02-11T12:13:41;102163.84;;;5.44;100.00
34925;BME280;21130;51.728;8.748;2023-02-11T12:16:18;102159.88;;;5.46;100.00
34925;BME280;21130;51.728;8.748;2023-02-11T12:19:09;102167.63;;;5.51;100.00
34925;BME280;21130;51.728;8.748;2023-02-11T12:21:43;102164.38;;;5.55;100.00
34925;BME280;21130;51.728;8.748;2023-02-11T12:24:29;102172.63;;;5.55;100.00
34925;BME280;21130;51.728;8.748;2023-02-11T12:27:02;102164.22;;;5.57;100.00
34925;BME280;21130;51.728;8.748;2023-02-11T12:29:38;102162.13;;;5.59;100.00
34925;BME280;21130;51.728;8.748;2023-02-11T12:32:23;102165.22;;;5.64;100.00
34925;BME280;21130;51.728;8.748;2023-02-11T12:35:04;102158.50;;;5.67;100.00
34925;BME280;21130;51.728;8.748;2023-02-11T12:37:41;102155.94;;;5.65;100.00
34925;BME280;21130;51.728;8.748;2023-02-11T12:40:19;102168.66;;;5.66;100.00
34925;BME280;21130;51.728;8.748;2023-02-11T12:43:02;102164.34;;;5.72;100.00
34925;BME280;21130;51.728;8.748;2023-02-11T12:46:07;102165.75;;;5.76;100.00
34925;BME280;21130;51.728;8.748;2023-02-11T12:48:46;102166.94;;;5.73;100.00
34925;BME280;21130;51.728;8.748;2023-02-11T12:51:22;102161.78;;;5.78;100.00
34925;BME280;21130;51.728;8.748;2023-02-11T12:54:13;102164.38;;;5.80;100.00
34925;BME280;21130;51.728;8.748;2023-02-11T12:56:46;102159.22;;;5.77;100.00
34925;BME280;21130;51.728;8.748;2023-02-11T12:59:21;102157.66;;;5.82;100.00
34925;BME280;21130;51.728;8.748;2023-02-11T13:01:54;102169.38;;;5.84;100.00
34925;BME280;21130;51.728;8.748;2023-02-11T13:04:25;102162.13;;;5.83;100.00
34925;BME280;21130;51.728;8.748;2023-02-11T13:06:57;102159.38;;;5.83;100.00
34925;BME280;21130;51.728;8.748;2023-02-11T13:09:29;102162.81;;;5.85;100.00
34925;BME280;21130;51.728;8.748;2023-02-11T13:12:01;102156.59;;;5.92;100.00
34925;BME280;21130;51.728;8.748;2023-02-11T13:20:29;102152.28;;;5.89;100.00
34925;BME280;21130;51.728;8.748;2023-02-11T13:23:02;102152.84;;;5.93;100.00